sensor_id;sensor_type;location;lat;lon;timestamp;temperature;humidity
70214;DHT22;60138;55.808;37.078;2024-03-29T00:02:07;6.35;53.45
70214;DHT22;60138;55.808;37.078;2024-03-29T00:04:33;6.35;53.23
70214;DHT22;60138;55.808;37.078;2024-03-29T00:06:59;6.35;53.26
70214;DHT22;60138;55.808;37.078;2024-03-29T00:09:25;6.35;53.36
70214;DHT22;60138;55.808;37.078;2024-03-29T00:11:51;6.35;53.27
70214;DHT22;60138;55.808;37.078;2024-03-29T00:14:16;6.31;53.37
70214;DHT22;60138;55.808;37.078;2024-03-29T00:16:42;6.34;53.43
70214;DHT22;60138;55.808;37.078;2024-03-29T00:19:07;6.36;53.00
70214;DHT22;60138;55.808;37.078;2024-03-29T00:21:33;6.35;53.42
70214;DHT22;60138;55.808;37.078;2024-03-29T00:23:59;6.35;53.44
70214;DHT22;60138;55.808;37.078;2024-03-29T00:26:25;6.36;52.96
70214;DHT22;60138;55.808;37.078;2024-03-29T00:28:50;6.35;53.33
70214;DHT22;60138;55.808;37.078;2024-03-29T00:31:16;6.37;53.44
70214;DHT22;60138;55.808;37.078;2024-03-29T00:33:42;6.37;53.54
70214;DHT22;60138;55.808;37.078;2024-03-29T00:36:07;6.36;53.49
70214;DHT22;60138;55.808;37.078;2024-03-29T00:38:33;6.37;53.28
70214;DHT22;60138;55.808;37.078;2024-03-29T00:40:59;6.39;53.32
70214;DHT22;60138;55.808;37.078;2024-03-29T00:43:25;6.39;53.23
70214;DHT22;60138;55.808;37.078;2024-03-29T00:45:50;6.38;53.47
70214;DHT22;60138;55.808;37.078;2024-03-29T00:48:17;6.38;53.42
70214;DHT22;60138;55.808;37.078;2024-03-29T00:50:42;6.37;53.33
70214;DHT22;60138;55.808;37.078;2024-03-29T00:53:08;6.38;53.46
70214;DHT22;60138;55.808;37.078;2024-03-29T00:55:34;6.38;53.44
70214;DHT22;60138;55.808;37.078;2024-03-29T00:58:02;6.37;53.37
70214;DHT22;60138;55.808;37.078;2024-03-29T01:00:27;6.38;53.58
70214;DHT22;60138;55.808;37.078;2024-03-29T01:02:53;6.40;53.43
70214;DHT22;60138;55.808;37.078;2024-03-29T01:05:19;6.39;53.39
70214;DHT22;60138;55.808;37.078;2024-03-29T01:07:44;6.40;53.44
70214;DHT22;60138;55.808;37.078;2024-03-29T01:10:10;6.40;53.54
70214;DHT22;60138;55.808;37.078;2024-03-29T01:12:36;6.42;53.71
70214;DHT22;60138;55.808;37.078;2024-03-29T01:15:02;6.41;53.55
70214;DHT22;60138;55.808;37.078;2024-03-29T01:17:32;6.43;53.52
70214;DHT22;60138;55.808;37.078;2024-03-29T01:19:58;6.45;53.62
70214;DHT22;60138;55.808;37.078;2024-03-29T01:22:23;6.45;53.20
70214;DHT22;60138;55.808;37.078;2024-03-29T01:24:49;6.44;53.36
70214;DHT22;60138;55.808;37.078;2024-03-29T01:27:15;6.44;53.39
70214;DHT22;60138;55.808;37.078;2024-03-29T01:29:40;6.44;53.76
70214;DHT22;60138;55.808;37.078;2024-03-29T01:32:06;6.44;53.47
70214;DHT22;60138;55.808;37.078;2024-03-29T01:34:32;6.44;53.49
70214;DHT22;60138;55.808;37.078;2024-03-29T01:36:58;6.44;53.59
70214;DHT22;60138;55.808;37.078;2024-03-29T01:39:23;6.46;53.65
70214;DHT22;60138;55.808;37.078;2024-03-29T01:41:49;6.45;53.57
70214;DHT22;60138;55.808;37.078;2024-03-29T01:44:15;6.46;53.49
70214;DHT22;60138;55.808;37.078;2024-03-29T01:46:41;6.48;53.49
70214;DHT22;60138;55.808;37.078;2024-03-29T01:49:07;6.49;53.59
70214;DHT22;60138;55.808;37.078;2024-03-29T01:51:37;6.50;53.71
70214;DHT22;60138;55.808;37.078;2024-03-29T01:54:03;6.51;53.66
70214;DHT22;60138;55.808;37.078;2024-03-29T01:56:29;6.50;53.41
70214;DHT22;60138;55.808;37.078;2024-03-29T01:58:57;6.51;53.78
70214;DHT22;60138;55.808;37.078;2024-03-29T02:01:24;6.51;53.54
70214;DHT22;60138;55.808;37.078;2024-03-29T02:03:52;6.51;53.69
70214;DHT22;60138;55.808;37.078;2024-03-29T02:06:18;6.51;53.74
70214;DHT22;60138;55.808;37.078;2024-03-29T02:08:44;6.51;53.75
70214;DHT22;60138;55.808;37.078;2024-03-29T02:11:10;6.51;53.74
70214;DHT22;60138;55.808;37.078;2024-03-29T02:13:35;6.51;53.66
70214;DHT22;60138;55.808;37.078;2024-03-29T02:16:03;6.53;53.67
70214;DHT22;60138;55.808;37.078;2024-03-29T02:18:29;6.54;53.95
70214;DHT22;60138;55.808;37.078;2024-03-29T02:20:55;6.53;54.03
70214;DHT22;60138;55.808;37.078;2024-03-29T02:23:26;6.52;54.05
70214;DHT22;60138;55.808;37.078;2024-03-29T02:25:52;6.54;54.10
70214;DHT22;60138;55.808;37.078;2024-03-29T02:28:20;6.54;53.88
70214;DHT22;60138;55.808;37.078;2024-03-29T02:30:47;6.53;53.84
70214;DHT22;60138;55.808;37.078;2024-03-29T02:33:13;6.53;53.69
70214;DHT22;60138;55.808;37.078;2024-03-29T02:35:38;6.52;53.86
70214;DHT22;60138;55.808;37.078;2024-03-29T02:38:04;6.52;53.84
70214;DHT22;60138;55.808;37.078;2024-03-29T02:40:30;6.51;53.95
70214;DHT22;60138;55.808;37.078;2024-03-29T02:42:56;6.50;53.84
70214;DHT22;60138;55.808;37.078;2024-03-29T02:45:21;6.48;53.84
70214;DHT22;60138;55.808;37.078;2024-03-29T02:47:47;6.49;53.86
70214;DHT22;60138;55.808;37.078;2024-03-29T02:50:14;6.44;53.97
70214;DHT22;60138;55.808;37.078;2024-03-29T02:52:40;6.41;53.85
70214;DHT22;60138;55.808;37.078;2024-03-29T02:55:06;6.37;53.89
70214;DHT22;60138;55.808;37.078;2024-03-29T02:57:32;6.30;54.07
70214;DHT22;60138;55.808;37.078;2024-03-29T02:59:58;6.27;54.60
70214;DHT22;60138;55.808;37.078;2024-03-29T03:02:23;6.24;54.46
70214;DHT22;60138;55.808;37.078;2024-03-29T03:04:49;6.20;54.52
70214;DHT22;60138;55.808;37.078;2024-03-29T03:07:15;6.16;54.65
70214;DHT22;60138;55.808;37.078;2024-03-29T03:09:40;6.15;54.62
70214;DHT22;60138;55.808;37.078;2024-03-29T03:12:06;6.14;54.50
70214;DHT22;60138;55.808;37.078;2024-03-29T03:14:32;6.16;54.76
70214;DHT22;60138;55.808;37.078;2024-03-29T03:17:00;6.17;54.33
70214;DHT22;60138;55.808;37.078;2024-03-29T03:19:26;6.21;54.54
70214;DHT22;60138;55.808;37.078;2024-03-29T03:21:52;6.23;54.59
70214;DHT22;60138;55.808;37.078;2024-03-29T03:24:17;6.19;54.71
70214;DHT22;60138;55.808;37.078;2024-03-29T03:26:43;6.15;54.62
70214;DHT22;60138;55.808;37.078;2024-03-29T03:29:09;6.11;54.65
70214;DHT22;60138;55.808;37.078;2024-03-29T03:31:34;6.10;54.75
70214;DHT22;60138;55.808;37.078;2024-03-29T03:34:00;6.13;54.55
70214;DHT22;60138;55.808;37.078;2024-03-29T03:36:28;6.12;54.68
70214;DHT22;60138;55.808;37.078;2024-03-29T03:38:54;6.08;54.81
70214;DHT22;60138;55.808;37.078;2024-03-29T03:41:19;6.04;54.63
70214;DHT22;60138;55.808;37.078;2024-03-29T03:43:45;6.00;54.46
70214;DHT22;60138;55.808;37.078;2024-03-29T03:46:11;5.93;54.92
70214;DHT22;60138;55.808;37.078;2024-03-29T03:48:36;5.84;55.70
70214;DHT22;60138;55.808;37.078;2024-03-29T03:51:05;5.81;55.33
70214;DHT22;60138;55.808;37.078;2024-03-29T03:53:31;5.80;55.52
70214;DHT22;60138;55.808;37.078;2024-03-29T03:55:56;5.84;55.68
70214;DHT22;60138;55.808;37.078;2024-03-29T03:58:22;5.89;55.70
70214;DHT22;60138;55.808;37.078;2024-03-29T04:00:48;5.92;55.35
70214;DHT22;60138;55.808;37.078;2024-03-29T04:03:14;5.96;55.28
70214;DHT22;60138;55.808;37.078;2024-03-29T04:05:40;5.97;55.48
70214;DHT22;60138;55.808;37.078;2024-03-29T04:08:06;5.99;55.23
70214;DHT22;60138;55.808;37.078;2024-03-29T04:10:31;6.06;55.45
70214;DHT22;60138;55.808;37.078;2024-03-29T04:12:57;6.13;55.41
70214;DHT22;60138;55.808;37.078;2024-03-29T04:15:23;6.22;55.36
70214;DHT22;60138;55.808;37.078;2024-03-29T04:17:49;6.30;55.19
70214;DHT22;60138;55.808;37.078;2024-03-29T04:20:14;6.38;55.15
70214;DHT22;60138;55.808;37.078;2024-03-29T04:22:40;6.48;55.20
70214;DHT22;60138;55.808;37.078;2024-03-29T04:25:06;6.59;54.85
70214;DHT22;60138;55.808;37.078;2024-03-29T04:27:32;6.67;54.86
70214;DHT22;60138;55.808;37.078;2024-03-29T04:29:59;6.74;54.36
70214;DHT22;60138;55.808;37.078;2024-03-29T04:32:24;6.79;54.35
70214;DHT22;60138;55.808;37.078;2024-03-29T04:34:50;6.86;54.47
70214;DHT22;60138;55.808;37.078;2024-03-29T04:37:16;6.91;54.33
70214;DHT22;60138;55.808;37.078;2024-03-29T04:39:43;6.96;54.26
70214;DHT22;60138;55.808;37.078;2024-03-29T04:42:09;6.98;54.00
70214;DHT22;60138;55.808;37.078;2024-03-29T04:44:35;7.02;54.01
70214;DHT22;60138;55.808;37.078;2024-03-29T04:47:01;7.05;54.03
70214;DHT22;60138;55.808;37.078;2024-03-29T04:49:27;7.08;54.07
70214;DHT22;60138;55.808;37.078;2024-03-29T04:51:53;7.07;53.82
70214;DHT22;60138;55.808;37.078;2024-03-29T04:54:18;7.01;53.82
70214;DHT22;60138;55.808;37.078;2024-03-29T04:56:44;6.89;53.91
70214;DHT22;60138;55.808;37.078;2024-03-29T04:59:10;6.79;54.20
70214;DHT22;60138;55.808;37.078;2024-03-29T05:01:35;6.66;55.49
70214;DHT22;60138;55.808;37.078;2024-03-29T05:04:01;6.59;55.13
70214;DHT22;60138;55.808;37.078;2024-03-29T05:06:29;6.55;54.96
70214;DHT22;60138;55.808;37.078;2024-03-29T05:08:55;6.59;54.96
70214;DHT22;60138;55.808;37.078;2024-03-29T05:11:21;6.68;55.07
70214;DHT22;60138;55.808;37.078;2024-03-29T05:13:47;6.80;55.03
70214;DHT22;60138;55.808;37.078;2024-03-29T05:16:13;6.93;54.69
70214;DHT22;60138;55.808;37.078;2024-03-29T05:18:38;7.00;54.79
70214;DHT22;60138;55.808;37.078;2024-03-29T05:21:04;7.05;54.60
70214;DHT22;60138;55.808;37.078;2024-03-29T05:23:30;7.09;54.39
70214;DHT22;60138;55.808;37.078;2024-03-29T05:25:56;7.18;54.23
70214;DHT22;60138;55.808;37.078;2024-03-29T05:28:22;7.34;54.11
70214;DHT22;60138;55.808;37.078;2024-03-29T05:30:47;7.44;53.96
70214;DHT22;60138;55.808;37.078;2024-03-29T05:33:13;7.55;53.76
70214;DHT22;60138;55.808;37.078;2024-03-29T05:35:39;7.67;53.68
70214;DHT22;60138;55.808;37.078;2024-03-29T05:38:05;7.78;53.39
70214;DHT22;60138;55.808;37.078;2024-03-29T05:40:31;7.90;52.98
70214;DHT22;60138;55.808;37.078;2024-03-29T05:42:56;8.06;52.96
70214;DHT22;60138;55.808;37.078;2024-03-29T05:45:28;8.19;52.55
70214;DHT22;60138;55.808;37.078;2024-03-29T05:47:54;8.28;52.41
70214;DHT22;60138;55.808;37.078;2024-03-29T05:50:21;8.36;52.36
70214;DHT22;60138;55.808;37.078;2024-03-29T05:52:48;8.42;52.30
70214;DHT22;60138;55.808;37.078;2024-03-29T05:55:14;8.48;52.22
70214;DHT22;60138;55.808;37.078;2024-03-29T05:57:40;8.51;52.27
70214;DHT22;60138;55.808;37.078;2024-03-29T06:00:06;8.56;51.98
70214;DHT22;60138;55.808;37.078;2024-03-29T06:02:32;8.53;51.91
70214;DHT22;60138;55.808;37.078;2024-03-29T06:04:58;8.51;51.96
70214;DHT22;60138;55.808;37.078;2024-03-29T06:07:23;8.51;52.03
70214;DHT22;60138;55.808;37.078;2024-03-29T06:09:49;8.48;51.93
70214;DHT22;60138;55.808;37.078;2024-03-29T06:12:15;8.58;51.82
70214;DHT22;60138;55.808;37.078;2024-03-29T06:14:40;8.62;51.47
70214;DHT22;60138;55.808;37.078;2024-03-29T06:17:06;8.71;51.48
70214;DHT22;60138;55.808;37.078;2024-03-29T06:19:32;8.82;51.56
70214;DHT22;60138;55.808;37.078;2024-03-29T06:21:57;8.94;51.35
70214;DHT22;60138;55.808;37.078;2024-03-29T06:24:23;9.04;51.58
70214;DHT22;60138;55.808;37.078;2024-03-29T06:26:49;9.07;51.20
70214;DHT22;60138;55.808;37.078;2024-03-29T06:29:14;9.12;51.27
70214;DHT22;60138;55.808;37.078;2024-03-29T06:31:40;9.08;51.25
70214;DHT22;60138;55.808;37.078;2024-03-29T06:34:06;9.09;51.38
70214;DHT22;60138;55.808;37.078;2024-03-29T06:36:32;9.08;50.82
70214;DHT22;60138;55.808;37.078;2024-03-29T06:38:57;9.11;50.85
70214;DHT22;60138;55.808;37.078;2024-03-29T06:41:23;9.19;50.86
70214;DHT22;60138;55.808;37.078;2024-03-29T06:43:49;9.20;50.85
70214;DHT22;60138;55.808;37.078;2024-03-29T06:46:15;9.24;50.61
70214;DHT22;60138;55.808;37.078;2024-03-29T06:48:41;9.27;50.69
70214;DHT22;60138;55.808;37.078;2024-03-29T06:51:07;9.32;50.14
70214;DHT22;60138;55.808;37.078;2024-03-29T06:53:32;9.31;50.28
70214;DHT22;60138;55.808;37.078;2024-03-29T06:56:00;9.26;50.19
70214;DHT22;60138;55.808;37.078;2024-03-29T06:58:26;9.26;50.38
70214;DHT22;60138;55.808;37.078;2024-03-29T07:00:52;9.32;50.24
70214;DHT22;60138;55.808;37.078;2024-03-29T07:03:17;9.35;50.22
70214;DHT22;60138;55.808;37.078;2024-03-29T07:05:43;9.41;49.66
70214;DHT22;60138;55.808;37.078;2024-03-29T07:08:09;9.45;50.24
70214;DHT22;60138;55.808;37.078;2024-03-29T07:10:34;9.48;50.46
70214;DHT22;60138;55.808;37.078;2024-03-29T07:13:00;9.50;50.24
70214;DHT22;60138;55.808;37.078;2024-03-29T07:15:26;9.50;50.02
70214;DHT22;60138;55.808;37.078;2024-03-29T07:17:52;9.45;50.24
70214;DHT22;60138;55.808;37.078;2024-03-29T07:20:17;9.34;50.14
70214;DHT22;60138;55.808;37.078;2024-03-29T07:22:43;9.19;50.37
70214;DHT22;60138;55.808;37.078;2024-03-29T07:25:09;9.10;50.56
70214;DHT22;60138;55.808;37.078;2024-03-29T07:27:35;9.00;50.36
70214;DHT22;60138;55.808;37.078;2024-03-29T07:30:01;8.89;50.52
70214;DHT22;60138;55.808;37.078;2024-03-29T07:32:30;8.80;50.85
70214;DHT22;60138;55.808;37.078;2024-03-29T07:34:56;8.74;50.94
70214;DHT22;60138;55.808;37.078;2024-03-29T07:37:22;8.68;50.97
70214;DHT22;60138;55.808;37.078;2024-03-29T07:39:48;8.61;51.14
70214;DHT22;60138;55.808;37.078;2024-03-29T07:42:13;8.53;51.27
70214;DHT22;60138;55.808;37.078;2024-03-29T07:44:39;8.46;51.28
70214;DHT22;60138;55.808;37.078;2024-03-29T07:47:05;8.43;51.30
70214;DHT22;60138;55.808;37.078;2024-03-29T07:49:30;8.38;51.37
70214;DHT22;60138;55.808;37.078;2024-03-29T07:51:56;8.36;51.55
70214;DHT22;60138;55.808;37.078;2024-03-29T07:54:24;8.36;51.56
70214;DHT22;60138;55.808;37.078;2024-03-29T07:56:50;8.38;51.67
70214;DHT22;60138;55.808;37.078;2024-03-29T07:59:16;8.42;51.72
70214;DHT22;60138;55.808;37.078;2024-03-29T08:01:41;8.41;51.63
70214;DHT22;60138;55.808;37.078;2024-03-29T08:04:07;8.39;51.77
70214;DHT22;60138;55.808;37.078;2024-03-29T08:06:33;8.38;52.25
70214;DHT22;60138;55.808;37.078;2024-03-29T08:08:58;8.36;52.40
70214;DHT22;60138;55.808;37.078;2024-03-29T08:11:27;8.36;52.46
70214;DHT22;60138;55.808;37.078;2024-03-29T08:13:52;8.38;52.65
70214;DHT22;60138;55.808;37.078;2024-03-29T08:16:18;8.34;52.24
70214;DHT22;60138;55.808;37.078;2024-03-29T08:18:45;8.30;52.91
70214;DHT22;60138;55.808;37.078;2024-03-29T08:21:11;8.32;52.97
70214;DHT22;60138;55.808;37.078;2024-03-29T08:23:39;8.33;53.21
70214;DHT22;60138;55.808;37.078;2024-03-29T08:26:04;8.38;53.14
70214;DHT22;60138;55.808;37.078;2024-03-29T08:28:30;8.44;53.22
70214;DHT22;60138;55.808;37.078;2024-03-29T08:31:06;8.52;52.51
70214;DHT22;60138;55.808;37.078;2024-03-29T08:33:32;8.60;52.71
70214;DHT22;60138;55.808;37.078;2024-03-29T08:35:58;8.67;52.49
70214;DHT22;60138;55.808;37.078;2024-03-29T08:38:24;8.68;52.66
70214;DHT22;60138;55.808;37.078;2024-03-29T08:40:50;8.66;52.36
70214;DHT22;60138;55.808;37.078;2024-03-29T08:43:16;8.64;53.04
70214;DHT22;60138;55.808;37.078;2024-03-29T08:45:42;8.64;52.77
70214;DHT22;60138;55.808;37.078;2024-03-29T08:48:08;8.64;52.51
70214;DHT22;60138;55.808;37.078;2024-03-29T08:50:34;8.65;53.23
70214;DHT22;60138;55.808;37.078;2024-03-29T08:53:00;8.66;52.65
70214;DHT22;60138;55.808;37.078;2024-03-29T08:55:25;8.59;53.04
70214;DHT22;60138;55.808;37.078;2024-03-29T08:57:51;8.57;52.57
70214;DHT22;60138;55.808;37.078;2024-03-29T09:00:17;8.56;52.83
70214;DHT22;60138;55.808;37.078;2024-03-29T09:02:43;8.57;52.61
70214;DHT22;60138;55.808;37.078;2024-03-29T09:05:10;8.57;52.62
70214;DHT22;60138;55.808;37.078;2024-03-29T09:07:36;8.60;52.77
70214;DHT22;60138;55.808;37.078;2024-03-29T09:10:05;8.67;52.82
70214;DHT22;60138;55.808;37.078;2024-03-29T09:12:31;8.74;52.87
70214;DHT22;60138;55.808;37.078;2024-03-29T09:14:56;8.81;52.81
70214;DHT22;60138;55.808;37.078;2024-03-29T09:17:22;8.82;52.60
70214;DHT22;60138;55.808;37.078;2024-03-29T09:19:51;8.80;52.58
70214;DHT22;60138;55.808;37.078;2024-03-29T09:22:17;8.79;53.19
70214;DHT22;60138;55.808;37.078;2024-03-29T09:24:43;8.81;53.14
70214;DHT22;60138;55.808;37.078;2024-03-29T09:27:08;8.81;52.70
70214;DHT22;60138;55.808;37.078;2024-03-29T09:29:34;8.87;52.33
70214;DHT22;60138;55.808;37.078;2024-03-29T09:32:00;8.98;52.70
70214;DHT22;60138;55.808;37.078;2024-03-29T09:34:25;9.09;52.37
70214;DHT22;60138;55.808;37.078;2024-03-29T09:36:51;9.27;52.38
70214;DHT22;60138;55.808;37.078;2024-03-29T09:39:17;9.38;52.14
70214;DHT22;60138;55.808;37.078;2024-03-29T09:41:45;9.50;51.91
70214;DHT22;60138;55.808;37.078;2024-03-29T09:44:13;9.55;51.48
70214;DHT22;60138;55.808;37.078;2024-03-29T09:46:39;9.49;51.75
70214;DHT22;60138;55.808;37.078;2024-03-29T09:49:07;9.50;51.72
70214;DHT22;60138;55.808;37.078;2024-03-29T09:51:34;9.57;51.59
70214;DHT22;60138;55.808;37.078;2024-03-29T09:54:03;9.60;51.65
70214;DHT22;60138;55.808;37.078;2024-03-29T09:56:33;9.60;51.73
70214;DHT22;60138;55.808;37.078;2024-03-29T09:58:59;9.65;51.90
70214;DHT22;60138;55.808;37.078;2024-03-29T10:01:24;9.70;51.45
70214;DHT22;60138;55.808;37.078;2024-03-29T10:03:51;9.68;51.35
70214;DHT22;60138;55.808;37.078;2024-03-29T10:06:19;9.88;51.24
70214;DHT22;60138;55.808;37.078;2024-03-29T10:08:45;10.20;50.92
70214;DHT22;60138;55.808;37.078;2024-03-29T10:11:11;10.52;50.56
70214;DHT22;60138;55.808;37.078;2024-03-29T10:13:37;10.73;50.36
70214;DHT22;60138;55.808;37.078;2024-03-29T10:16:03;10.83;50.26
70214;DHT22;60138;55.808;37.078;2024-03-29T10:18:29;10.96;49.89
70214;DHT22;60138;55.808;37.078;2024-03-29T10:21:06;11.04;49.04
70214;DHT22;60138;55.808;37.078;2024-03-29T10:23:32;11.13;49.38
70214;DHT22;60138;55.808;37.078;2024-03-29T10:25:58;11.25;49.40
70214;DHT22;60138;55.808;37.078;2024-03-29T10:28:30;11.31;48.57
70214;DHT22;60138;55.808;37.078;2024-03-29T10:30:57;11.31;49.34
70214;DHT22;60138;55.808;37.078;2024-03-29T10:33:22;11.36;49.11
70214;DHT22;60138;55.808;37.078;2024-03-29T10:35:48;11.49;48.79
70214;DHT22;60138;55.808;37.078;2024-03-29T10:38:13;11.51;48.76
70214;DHT22;60138;55.808;37.078;2024-03-29T10:40:40;11.49;49.21
70214;DHT22;60138;55.808;37.078;2024-03-29T10:43:08;11.48;48.92
70214;DHT22;60138;55.808;37.078;2024-03-29T10:45:36;11.48;49.09
70214;DHT22;60138;55.808;37.078;2024-03-29T10:48:03;11.41;49.05
70214;DHT22;60138;55.808;37.078;2024-03-29T10:50:31;11.39;48.58
70214;DHT22;60138;55.808;37.078;2024-03-29T10:53:00;11.34;48.58
70214;DHT22;60138;55.808;37.078;2024-03-29T10:55:29;11.45;49.02
70214;DHT22;60138;55.808;37.078;2024-03-29T10:57:55;11.70;48.60
70214;DHT22;60138;55.808;37.078;2024-03-29T11:00:23;11.85;48.75
70214;DHT22;60138;55.808;37.078;2024-03-29T11:05:30;11.37;48.69
70214;DHT22;60138;55.808;37.078;2024-03-29T11:07:59;11.00;49.44
70214;DHT22;60138;55.808;37.078;2024-03-29T11:10:47;10.82;50.02
70214;DHT22;60138;55.808;37.078;2024-03-29T11:15:49;10.65;50.63
70214;DHT22;60138;55.808;37.078;2024-03-29T11:18:16;10.72;51.07
70214;DHT22;60138;55.808;37.078;2024-03-29T11:20:44;10.89;50.76
70214;DHT22;60138;55.808;37.078;2024-03-29T11:23:12;11.07;50.69
70214;DHT22;60138;55.808;37.078;2024-03-29T11:25:40;11.42;50.22
70214;DHT22;60138;55.808;37.078;2024-03-29T11:28:11;11.75;49.98
70214;DHT22;60138;55.808;37.078;2024-03-29T11:30:41;11.81;49.71
70214;DHT22;60138;55.808;37.078;2024-03-29T11:33:07;11.66;49.66
70214;DHT22;60138;55.808;37.078;2024-03-29T11:35:33;11.48;49.89
70214;DHT22;60138;55.808;37.078;2024-03-29T11:38:01;11.40;50.08
70214;DHT22;60138;55.808;37.078;2024-03-29T11:40:32;11.32;50.08
70214;DHT22;60138;55.808;37.078;2024-03-29T11:42:57;11.27;50.67
70214;DHT22;60138;55.808;37.078;2024-03-29T11:45:25;11.29;50.65
70214;DHT22;60138;55.808;37.078;2024-03-29T11:47:51;12.38;50.29
70214;DHT22;60138;55.808;37.078;2024-03-29T11:50:18;14.09;47.27
70214;DHT22;60138;55.808;37.078;2024-03-29T11:52:43;15.15;45.92
70214;DHT22;60138;55.808;37.078;2024-03-29T11:55:09;16.02;46.35
70214;DHT22;60138;55.808;37.078;2024-03-29T11:57:35;16.73;43.28
70214;DHT22;60138;55.808;37.078;2024-03-29T12:00:00;17.56;43.05
70214;DHT22;60138;55.808;37.078;2024-03-29T12:02:26;18.49;41.87
70214;DHT22;60138;55.808;37.078;2024-03-29T12:04:52;18.23;38.51
70214;DHT22;60138;55.808;37.078;2024-03-29T12:07:18;17.22;42.81
70214;DHT22;60138;55.808;37.078;2024-03-29T12:09:44;16.35;43.06
70214;DHT22;60138;55.808;37.078;2024-03-29T12:12:10;15.78;41.39
70214;DHT22;60138;55.808;37.078;2024-03-29T12:14:36;15.34;44.93
70214;DHT22;60138;55.808;37.078;2024-03-29T12:17:01;15.06;44.08
70214;DHT22;60138;55.808;37.078;2024-03-29T12:19:27;14.97;45.09
70214;DHT22;60138;55.808;37.078;2024-03-29T12:21:53;14.79;45.09
70214;DHT22;60138;55.808;37.078;2024-03-29T12:24:20;14.71;45.22
70214;DHT22;60138;55.808;37.078;2024-03-29T12:26:45;14.65;45.77
70214;DHT22;60138;55.808;37.078;2024-03-29T12:29:13;14.44;46.21
70214;DHT22;60138;55.808;37.078;2024-03-29T12:31:39;14.15;45.99
70214;DHT22;60138;55.808;37.078;2024-03-29T12:34:05;14.00;46.65
70214;DHT22;60138;55.808;37.078;2024-03-29T12:36:31;13.88;46.51
70214;DHT22;60138;55.808;37.078;2024-03-29T12:38:58;13.81;46.97
70214;DHT22;60138;55.808;37.078;2024-03-29T12:41:24;13.78;47.08
70214;DHT22;60138;55.808;37.078;2024-03-29T12:43:53;13.79;46.86
70214;DHT22;60138;55.808;37.078;2024-03-29T12:46:19;14.15;46.89
70214;DHT22;60138;55.808;37.078;2024-03-29T12:48:45;14.58;46.18
70214;DHT22;60138;55.808;37.078;2024-03-29T12:51:10;14.63;46.00
70214;DHT22;60138;55.808;37.078;2024-03-29T12:53:38;14.59;45.99
70214;DHT22;60138;55.808;37.078;2024-03-29T12:56:05;14.56;46.17
70214;DHT22;60138;55.808;37.078;2024-03-29T12:58:30;14.39;45.69
70214;DHT22;60138;55.808;37.078;2024-03-29T13:00:56;14.23;46.48
70214;DHT22;60138;55.808;37.078;2024-03-29T13:03:22;13.93;46.36
70214;DHT22;60138;55.808;37.078;2024-03-29T13:05:48;13.77;46.80
70214;DHT22;60138;55.808;37.078;2024-03-29T13:08:14;13.65;47.36
70214;DHT22;60138;55.808;37.078;2024-03-29T13:10:40;14.10;47.09
70214;DHT22;60138;55.808;37.078;2024-03-29T13:13:07;14.58;46.30
70214;DHT22;60138;55.808;37.078;2024-03-29T13:15:38;14.53;46.28
70214;DHT22;60138;55.808;37.078;2024-03-29T13:18:05;14.33;45.70
70214;DHT22;60138;55.808;37.078;2024-03-29T13:20:32;14.11;46.39
70214;DHT22;60138;55.808;37.078;2024-03-29T13:22:58;13.85;46.66
70214;DHT22;60138;55.808;37.078;2024-03-29T13:25:24;13.68;46.89
70214;DHT22;60138;55.808;37.078;2024-03-29T13:27:52;13.56;47.12
70214;DHT22;60138;55.808;37.078;2024-03-29T13:30:18;13.60;47.41
70214;DHT22;60138;55.808;37.078;2024-03-29T13:32:44;13.83;47.32
70214;DHT22;60138;55.808;37.078;2024-03-29T13:35:10;14.01;47.05
70214;DHT22;60138;55.808;37.078;2024-03-29T13:37:41;13.94;46.82
70214;DHT22;60138;55.808;37.078;2024-03-29T13:40:07;13.78;47.12
70214;DHT22;60138;55.808;37.078;2024-03-29T13:42:37;13.60;47.18
70214;DHT22;60138;55.808;37.078;2024-03-29T13:45:04;13.36;47.29
70214;DHT22;60138;55.808;37.078;2024-03-29T13:47:32;13.16;47.65
70214;DHT22;60138;55.808;37.078;2024-03-29T13:49:58;12.93;47.82
70214;DHT22;60138;55.808;37.078;2024-03-29T13:52:24;12.80;48.02
70214;DHT22;60138;55.808;37.078;2024-03-29T13:54:49;12.66;48.37
70214;DHT22;60138;55.808;37.078;2024-03-29T13:57:15;12.59;48.52
70214;DHT22;60138;55.808;37.078;2024-03-29T13:59:43;12.62;48.73
70214;DHT22;60138;55.808;37.078;2024-03-29T14:02:11;12.91;48.36
70214;DHT22;60138;55.808;37.078;2024-03-29T14:04:37;13.66;48.00
70214;DHT22;60138;55.808;37.078;2024-03-29T14:07:03;14.32;48.02
70214;DHT22;60138;55.808;37.078;2024-03-29T14:09:28;14.51;47.02
70214;DHT22;60138;55.808;37.078;2024-03-29T14:11:54;14.40;46.23
70214;DHT22;60138;55.808;37.078;2024-03-29T14:14:20;14.21;46.59
70214;DHT22;60138;55.808;37.078;2024-03-29T14:16:45;13.97;46.62
70214;DHT22;60138;55.808;37.078;2024-03-29T14:19:11;13.76;46.97
70214;DHT22;60138;55.808;37.078;2024-03-29T14:21:37;13.77;47.34
70214;DHT22;60138;55.808;37.078;2024-03-29T14:24:05;13.65;47.25
70214;DHT22;60138;55.808;37.078;2024-03-29T14:26:31;13.50;47.35
70214;DHT22;60138;55.808;37.078;2024-03-29T14:28:56;13.48;47.47
70214;DHT22;60138;55.808;37.078;2024-03-29T14:31:22;13.44;47.60
70214;DHT22;60138;55.808;37.078;2024-03-29T14:33:48;13.26;47.76
70214;DHT22;60138;55.808;37.078;2024-03-29T14:36:14;13.06;47.92
70214;DHT22;60138;55.808;37.078;2024-03-29T14:38:39;12.90;48.33
70214;DHT22;60138;55.808;37.078;2024-03-29T14:41:05;12.84;48.44
70214;DHT22;60138;55.808;37.078;2024-03-29T14:43:31;12.77;48.37
70214;DHT22;60138;55.808;37.078;2024-03-29T14:45:56;12.73;48.70
70214;DHT22;60138;55.808;37.078;2024-03-29T14:48:22;12.69;48.76
70214;DHT22;60138;55.808;37.078;2024-03-29T14:50:48;12.62;48.91
70214;DHT22;60138;55.808;37.078;2024-03-29T14:53:16;12.56;49.11
70214;DHT22;60138;55.808;37.078;2024-03-29T14:55:43;12.45;49.10
70214;DHT22;60138;55.808;37.078;2024-03-29T14:58:09;12.36;49.33
70214;DHT22;60138;55.808;37.078;2024-03-29T15:00:37;12.30;49.43
70214;DHT22;60138;55.808;37.078;2024-03-29T15:03:03;12.26;49.56
70214;DHT22;60138;55.808;37.078;2024-03-29T15:05:29;12.21;49.70
70214;DHT22;60138;55.808;37.078;2024-03-29T15:07:54;12.16;49.82
70214;DHT22;60138;55.808;37.078;2024-03-29T15:10:20;12.10;49.94
70214;DHT22;60138;55.808;37.078;2024-03-29T15:12:46;12.05;49.87
70214;DHT22;60138;55.808;37.078;2024-03-29T15:15:12;11.99;50.13
70214;DHT22;60138;55.808;37.078;2024-03-29T15:17:38;11.94;50.30
70214;DHT22;60138;55.808;37.078;2024-03-29T15:20:06;11.88;50.28
70214;DHT22;60138;55.808;37.078;2024-03-29T15:22:32;11.84;50.51
70214;DHT22;60138;55.808;37.078;2024-03-29T15:24:59;11.79;50.60